sensor_id;sensor_type;location;lat;lon;timestamp;P1;durP1;ratioP1;P2;durP2;ratioP2
57697;SDS011;43531;52.152;6.366;2023-04-15T00:00:07;7.85;;;4.93;;
57697;SDS011;43531;52.152;6.366;2023-04-15T00:00:43;8.93;;;5.32;;
57697;SDS011;43531;52.152;6.366;2023-04-15T00:01:14;9.27;;;5.85;;
57697;SDS011;43531;52.152;6.366;2023-04-15T00:01:50;7.95;;;4.85;;
57697;SDS011;43531;52.152;6.366;2023-04-15T00:02:22;6.85;;;4.40;;
57697;SDS011;43531;52.152;6.366;2023-04-15T00:02:54;12.77;;;5.03;;
57697;SDS011;43531;52.152;6.366;2023-04-15T00:03:26;11.50;;;4.38;;
57697;SDS011;43531;52.152;6.366;2023-04-15T00:03:59;9.80;;;4.13;;
57697;SDS011;43531;52.152;6.366;2023-04-15T00:04:30;9.25;;;4.60;;
57697;SDS011;43531;52.152;6.366;2023-04-15T00:05:04;11.88;;;4.60;;
57697;SDS011;43531;52.152;6.366;2023-04-15T00:05:36;5.47;;;4.35;;
57697;SDS011;43531;52.152;6.366;2023-04-15T00:06:08;12.40;;;4.85;;
57697;SDS011;43531;52.152;6.366;2023-04-15T00:06:40;5.95;;;5.45;;
57697;SDS011;43531;52.152;6.366;2023-04-15T00:07:12;9.98;;;5.13;;
57697;SDS011;43531;52.152;6.366;2023-04-15T00:07:43;7.40;;;4.65;;
57697;SDS011;43531;52.152;6.366;2023-04-15T00:08:17;6.75;;;4.50;;
57697;SDS011;43531;52.152;6.366;2023-04-15T00:08:48;12.23;;;4.38;;
57697;SDS011;43531;52.152;6.366;2023-04-15T00:09:23;5.55;;;4.68;;
57697;SDS011;43531;52.152;6.366;2023-04-15T00:09:55;7.30;;;4.70;;
57697;SDS011;43531;52.152;6.366;2023-04-15T00:10:28;5.40;;;4.68;;
57697;SDS011;43531;52.152;6.366;2023-04-15T00:10:59;7.60;;;4.72;;
57697;SDS011;43531;52.152;6.366;2023-04-15T00:11:33;4.50;;;4.10;;
57697;SDS011;43531;52.152;6.366;2023-04-15T00:12:05;4.53;;;3.83;;
57697;SDS011;43531;52.152;6.366;2023-04-15T00:12:36;6.03;;;4.25;;
57697;SDS011;43531;52.152;6.366;2023-04-15T00:13:08;5.65;;;3.88;;
57697;SDS011;43531;52.152;6.366;2023-04-15T00:13:40;9.60;;;4.30;;
57697;SDS011;43531;52.152;6.366;2023-04-15T00:14:12;5.53;;;4.18;;
57697;SDS011;43531;52.152;6.366;2023-04-15T00:14:44;5.13;;;4.03;;
57697;SDS011;43531;52.152;6.366;2023-04-15T00:15:15;4.68;;;3.58;;
57697;SDS011;43531;52.152;6.366;2023-04-15T00:15:47;8.95;;;4.68;;
57697;SDS011;43531;52.152;6.366;2023-04-15T00:16:19;8.95;;;4.93;;
57697;SDS011;43531;52.152;6.366;2023-04-15T00:16:51;5.10;;;3.42;;
57697;SDS011;43531;52.152;6.366;2023-04-15T00:17:26;9.90;;;4.93;;
57697;SDS011;43531;52.152;6.366;2023-04-15T00:17:58;4.50;;;3.75;;
57697;SDS011;43531;52.152;6.366;2023-04-15T00:18:30;7.03;;;4.47;;
57697;SDS011;43531;52.152;6.366;2023-04-15T00:19:01;5.82;;;3.95;;
57697;SDS011;43531;52.152;6.366;2023-04-15T00:19:33;8.82;;;4.03;;
57697;SDS011;43531;52.152;6.366;2023-04-15T00:20:05;7.78;;;5.03;;
57697;SDS011;43531;52.152;6.366;2023-04-15T00:20:37;11.75;;;5.80;;
57697;SDS011;43531;52.152;6.366;2023-04-15T00:21:08;10.15;;;4.22;;
57697;SDS011;43531;52.152;6.366;2023-04-15T00:21:40;5.35;;;4.13;;
57697;SDS011;43531;52.152;6.366;2023-04-15T00:22:12;6.93;;;4.43;;
57697;SDS011;43531;52.152;6.366;2023-04-15T00:22:43;5.50;;;4.10;;
57697;SDS011;43531;52.152;6.366;2023-04-15T00:23:15;6.97;;;4.25;;
57697;SDS011;43531;52.152;6.366;2023-04-15T00:23:47;7.35;;;4.50;;
57697;SDS011;43531;52.152;6.366;2023-04-15T00:24:22;7.93;;;4.78;;
57697;SDS011;43531;52.152;6.366;2023-04-15T00:24:54;4.68;;;4.28;;
57697;SDS011;43531;52.152;6.366;2023-04-15T00:25:26;6.30;;;3.38;;
57697;SDS011;43531;52.152;6.366;2023-04-15T00:25:58;11.80;;;4.72;;
57697;SDS011;43531;52.152;6.366;2023-04-15T00:26:30;6.25;;;3.85;;
57697;SDS011;43531;52.152;6.366;2023-04-15T00:27:03;5.57;;;3.72;;
57697;SDS011;43531;52.152;6.366;2023-04-15T00:27:35;3.92;;;3.40;;
57697;SDS011;43531;52.152;6.366;2023-04-15T00:28:07;8.55;;;4.32;;
57697;SDS011;43531;52.152;6.366;2023-04-15T00:28:38;7.50;;;4.13;;
57697;SDS011;43531;52.152;6.366;2023-04-15T00:29:10;7.55;;;4.38;;
57697;SDS011;43531;52.152;6.366;2023-04-15T00:29:42;8.82;;;4.80;;
57697;SDS011;43531;52.152;6.366;2023-04-15T00:30:13;5.55;;;4.05;;
57697;SDS011;43531;52.152;6.366;2023-04-15T00:30:45;8.85;;;3.85;;
57697;SDS011;43531;52.152;6.366;2023-04-15T00:31:17;6.90;;;4.47;;
57697;SDS011;43531;52.152;6.366;2023-04-15T00:31:49;7.10;;;4.53;;
57697;SDS011;43531;52.152;6.366;2023-04-15T00:32:21;6.82;;;4.55;;
57697;SDS011;43531;52.152;6.366;2023-04-15T00:32:53;7.22;;;4.90;;
57697;SDS011;43531;52.152;6.366;2023-04-15T00:33:25;6.13;;;4.65;;
57697;SDS011;43531;52.152;6.366;2023-04-15T00:33:57;4.57;;;4.05;;
57697;SDS011;43531;52.152;6.366;2023-04-15T00:34:29;5.72;;;5.03;;
57697;SDS011;43531;52.152;6.366;2023-04-15T00:35:01;8.15;;;4.90;;
57697;SDS011;43531;52.152;6.366;2023-04-15T00:35:34;7.05;;;5.05;;
57697;SDS011;43531;52.152;6.366;2023-04-15T00:36:07;6.28;;;4.57;;
57697;SDS011;43531;52.152;6.366;2023-04-15T00:36:41;7.50;;;4.60;;
57697;SDS011;43531;52.152;6.366;2023-04-15T00:37:12;9.90;;;4.00;;
57697;SDS011;43531;52.152;6.366;2023-04-15T00:37:44;5.28;;;4.30;;
57697;SDS011;43531;52.152;6.366;2023-04-15T00:38:16;5.28;;;3.90;;
57697;SDS011;43531;52.152;6.366;2023-04-15T00:38:49;5.93;;;4.40;;
57697;SDS011;43531;52.152;6.366;2023-04-15T00:39:21;7.03;;;3.95;;
57697;SDS011;43531;52.152;6.366;2023-04-15T00:39:53;9.82;;;4.47;;
57697;SDS011;43531;52.152;6.366;2023-04-15T00:40:24;9.07;;;4.18;;
57697;SDS011;43531;52.152;6.366;2023-04-15T00:40:56;7.15;;;4.43;;
57697;SDS011;43531;52.152;6.366;2023-04-15T00:41:28;11.80;;;4.78;;
57697;SDS011;43531;52.152;6.366;2023-04-15T00:42:00;9.45;;;5.03;;
57697;SDS011;43531;52.152;6.366;2023-04-15T00:42:33;5.22;;;4.35;;
57697;SDS011;43531;52.152;6.366;2023-04-15T00:43:05;9.70;;;5.00;;
57697;SDS011;43531;52.152;6.366;2023-04-15T00:43:37;8.07;;;4.53;;
57697;SDS011;43531;52.152;6.366;2023-04-15T00:44:08;7.28;;;4.85;;
57697;SDS011;43531;52.152;6.366;2023-04-15T00:44:40;8.48;;;4.97;;
57697;SDS011;43531;52.152;6.366;2023-04-15T00:45:13;8.50;;;4.55;;
57697;SDS011;43531;52.152;6.366;2023-04-15T00:45:44;9.95;;;4.22;;
57697;SDS011;43531;52.152;6.366;2023-04-15T00:46:17;5.85;;;4.68;;
57697;SDS011;43531;52.152;6.366;2023-04-15T00:46:51;6.90;;;4.47;;
57697;SDS011;43531;52.152;6.366;2023-04-15T00:47:23;4.65;;;4.25;;
57697;SDS011;43531;52.152;6.366;2023-04-15T00:47:55;5.00;;;4.47;;
57697;SDS011;43531;52.152;6.366;2023-04-15T00:48:27;5.40;;;4.20;;
57697;SDS011;43531;52.152;6.366;2023-04-15T00:48:58;6.63;;;5.22;;
57697;SDS011;43531;52.152;6.366;2023-04-15T00:49:31;7.15;;;4.53;;
57697;SDS011;43531;52.152;6.366;2023-04-15T00:50:03;8.38;;;4.50;;
57697;SDS011;43531;52.152;6.366;2023-04-15T00:50:35;6.32;;;5.43;;
57697;SDS011;43531;52.152;6.366;2023-04-15T00:51:07;4.72;;;4.20;;
57697;SDS011;43531;52.152;6.366;2023-04-15T00:51:40;6.45;;;4.20;;
57697;SDS011;43531;52.152;6.366;2023-04-15T00:52:11;12.43;;;5.82;;
57697;SDS011;43531;52.152;6.366;2023-04-15T00:52:43;11.43;;;4.35;;
57697;SDS011;43531;52.152;6.366;2023-04-15T00:53:15;5.75;;;3.75;;
57697;SDS011;43531;52.152;6.366;2023-04-15T00:53:46;5.65;;;4.50;;
57697;SDS011;43531;52.152;6.366;2023-04-15T00:54:18;8.40;;;4.78;;
57697;SDS011;43531;52.152;6.366;2023-04-15T00:54:49;6.68;;;4.18;;
57697;SDS011;43531;52.152;6.366;2023-04-15T00:55:22;5.35;;;4.45;;
57697;SDS011;43531;52.152;6.366;2023-04-15T00:55:54;7.65;;;4.25;;
57697;SDS011;43531;52.152;6.366;2023-04-15T00:56:26;6.97;;;4.47;;
57697;SDS011;43531;52.152;6.366;2023-04-15T00:56:59;5.72;;;4.57;;
57697;SDS011;43531;52.152;6.366;2023-04-15T00:57:30;10.75;;;4.53;;
57697;SDS011;43531;52.152;6.366;2023-04-15T00:58:02;5.72;;;4.78;;
57697;SDS011;43531;52.152;6.366;2023-04-15T00:58:34;10.90;;;5.22;;
57697;SDS011;43531;52.152;6.366;2023-04-15T00:59:07;9.13;;;4.55;;
57697;SDS011;43531;52.152;6.366;2023-04-15T00:59:39;6.43;;;4.20;;
57697;SDS011;43531;52.152;6.366;2023-04-15T01:00:10;9.63;;;4.90;;
57697;SDS011;43531;52.152;6.366;2023-04-15T01:00:42;5.70;;;4.53;;
57697;SDS011;43531;52.152;6.366;2023-04-15T01:01:14;8.00;;;4.47;;
57697;SDS011;43531;52.152;6.366;2023-04-15T01:01:46;5.47;;;4.45;;
57697;SDS011;43531;52.152;6.366;2023-04-15T01:02:18;4.68;;;4.22;;
57697;SDS011;43531;52.152;6.366;2023-04-15T01:02:50;6.97;;;5.70;;
57697;SDS011;43531;52.152;6.366;2023-04-15T01:03:21;10.10;;;4.70;;
57697;SDS011;43531;52.152;6.366;2023-04-15T01:03:56;6.13;;;5.05;;
57697;SDS011;43531;52.152;6.366;2023-04-15T01:04:30;8.02;;;5.60;;
57697;SDS011;43531;52.152;6.366;2023-04-15T01:05:02;6.88;;;4.25;;
57697;SDS011;43531;52.152;6.366;2023-04-15T01:05:34;6.82;;;4.32;;
57697;SDS011;43531;52.152;6.366;2023-04-15T01:06:06;6.55;;;4.05;;
57697;SDS011;43531;52.152;6.366;2023-04-15T01:06:38;7.57;;;4.28;;
57697;SDS011;43531;52.152;6.366;2023-04-15T01:07:10;7.88;;;5.30;;
57697;SDS011;43531;52.152;6.366;2023-04-15T01:07:42;6.03;;;3.95;;
57697;SDS011;43531;52.152;6.366;2023-04-15T01:08:13;7.75;;;4.63;;
57697;SDS011;43531;52.152;6.366;2023-04-15T01:08:45;7.80;;;4.95;;
57697;SDS011;43531;52.152;6.366;2023-04-15T01:09:16;6.03;;;4.45;;
57697;SDS011;43531;52.152;6.366;2023-04-15T01:09:48;4.80;;;4.18;;
57697;SDS011;43531;52.152;6.366;2023-04-15T01:10:20;8.75;;;5.10;;
57697;SDS011;43531;52.152;6.366;2023-04-15T01:10:52;5.18;;;4.57;;
57697;SDS011;43531;52.152;6.366;2023-04-15T01:11:25;6.78;;;5.10;;
57697;SDS011;43531;52.152;6.366;2023-04-15T01:11:57;5.60;;;3.95;;
57697;SDS011;43531;52.152;6.366;2023-04-15T01:12:29;6.95;;;5.22;;
57697;SDS011;43531;52.152;6.366;2023-04-15T01:13:02;9.07;;;5.80;;
57697;SDS011;43531;52.152;6.366;2023-04-15T01:13:34;6.22;;;4.32;;
57697;SDS011;43531;52.152;6.366;2023-04-15T01:14:07;7.57;;;4.15;;
57697;SDS011;43531;52.152;6.366;2023-04-15T01:14:40;5.78;;;4.00;;
57697;SDS011;43531;52.152;6.366;2023-04-15T01:15:12;6.03;;;4.75;;
57697;SDS011;43531;52.152;6.366;2023-04-15T01:15:43;6.82;;;4.53;;
57697;SDS011;43531;52.152;6.366;2023-04-15T01:16:15;5.72;;;4.32;;
57697;SDS011;43531;52.152;6.366;2023-04-15T01:16:47;6.15;;;4.07;;
57697;SDS011;43531;52.152;6.366;2023-04-15T01:17:19;5.47;;;4.47;;
57697;SDS011;43531;52.152;6.366;2023-04-15T01:17:51;8.95;;;5.10;;
57697;SDS011;43531;52.152;6.366;2023-04-15T01:18:23;5.63;;;4.30;;
57697;SDS011;43531;52.152;6.366;2023-04-15T01:18:54;6.18;;;4.28;;
57697;SDS011;43531;52.152;6.366;2023-04-15T01:19:26;9.98;;;4.70;;
57697;SDS011;43531;52.152;6.366;2023-04-15T01:19:58;8.45;;;5.00;;
57697;SDS011;43531;52.152;6.366;2023-04-15T01:20:30;9.85;;;4.35;;
57697;SDS011;43531;52.152;6.366;2023-04-15T01:21:04;5.25;;;4.05;;
57697;SDS011;43531;52.152;6.366;2023-04-15T01:21:37;5.10;;;4.60;;
57697;SDS011;43531;52.152;6.366;2023-04-15T01:22:09;6.90;;;4.70;;
57697;SDS011;43531;52.152;6.366;2023-04-15T01:22:42;8.20;;;4.63;;
57697;SDS011;43531;52.152;6.366;2023-04-15T01:23:13;5.80;;;4.30;;
57697;SDS011;43531;52.152;6.366;2023-04-15T01:23:45;9.60;;;4.80;;
57697;SDS011;43531;52.152;6.366;2023-04-15T01:24:18;6.90;;;4.53;;
57697;SDS011;43531;52.152;6.366;2023-04-15T01:25:00;9.80;;;4.93;;
57697;SDS011;43531;52.152;6.366;2023-04-15T01:25:38;5.43;;;3.67;;
57697;SDS011;43531;52.152;6.366;2023-04-15T01:26:12;10.05;;;6.00;;
57697;SDS011;43531;52.152;6.366;2023-04-15T01:26:43;4.82;;;4.32;;
57697;SDS011;43531;52.152;6.366;2023-04-15T01:27:15;6.50;;;4.88;;
57697;SDS011;43531;52.152;6.366;2023-04-15T01:27:47;8.23;;;4.97;;
57697;SDS011;43531;52.152;6.366;2023-04-15T01:28:19;7.38;;;5.43;;
57697;SDS011;43531;52.152;6.366;2023-04-15T01:28:50;6.22;;;4.78;;
57697;SDS011;43531;52.152;6.366;2023-04-15T01:29:23;7.10;;;4.95;;
57697;SDS011;43531;52.152;6.366;2023-04-15T01:29:54;5.53;;;4.85;;
57697;SDS011;43531;52.152;6.366;2023-04-15T01:30:26;6.55;;;5.35;;
57697;SDS011;43531;52.152;6.366;2023-04-15T01:31:05;9.90;;;4.90;;
57697;SDS011;43531;52.152;6.366;2023-04-15T01:31:48;6.93;;;4.60;;
57697;SDS011;43531;52.152;6.366;2023-04-15T01:32:21;7.85;;;4.82;;
57697;SDS011;43531;52.152;6.366;2023-04-15T01:32:55;6.13;;;4.93;;
57697;SDS011;43531;52.152;6.366;2023-04-15T01:33:26;10.18;;;6.00;;
57697;SDS011;43531;52.152;6.366;2023-04-15T01:33:58;9.57;;;5.22;;
57697;SDS011;43531;52.152;6.366;2023-04-15T01:34:30;10.15;;;5.43;;
57697;SDS011;43531;52.152;6.366;2023-04-15T01:35:05;7.95;;;5.38;;
57697;SDS011;43531;52.152;6.366;2023-04-15T01:35:37;6.78;;;5.05;;
57697;SDS011;43531;52.152;6.366;2023-04-15T01:36:09;5.50;;;4.75;;
57697;SDS011;43531;52.152;6.366;2023-04-15T01:36:41;6.65;;;4.95;;
57697;SDS011;43531;52.152;6.366;2023-04-15T01:37:12;7.88;;;5.18;;
57697;SDS011;43531;52.152;6.366;2023-04-15T01:37:44;9.25;;;5.03;;
57697;SDS011;43531;52.152;6.366;2023-04-15T01:38:15;6.22;;;5.30;;
57697;SDS011;43531;52.152;6.366;2023-04-15T01:38:48;5.60;;;5.00;;
57697;SDS011;43531;52.152;6.366;2023-04-15T01:39:21;7.60;;;4.80;;
57697;SDS011;43531;52.152;6.366;2023-04-15T01:39:52;10.38;;;5.30;;
57697;SDS011;43531;52.152;6.366;2023-04-15T01:40:26;5.70;;;5.18;;
57697;SDS011;43531;52.152;6.366;2023-04-15T01:40:57;5.30;;;4.90;;
57697;SDS011;43531;52.152;6.366;2023-04-15T01:41:29;7.38;;;5.93;;
57697;SDS011;43531;52.152;6.366;2023-04-15T01:42:01;7.72;;;5.35;;
57697;SDS011;43531;52.152;6.366;2023-04-15T01:42:33;5.78;;;5.13;;
57697;SDS011;43531;52.152;6.366;2023-04-15T01:43:06;5.70;;;4.57;;
57697;SDS011;43531;52.152;6.366;2023-04-15T01:43:38;8.15;;;5.22;;
57697;SDS011;43531;52.152;6.366;2023-04-15T01:44:12;6.47;;;5.55;;
57697;SDS011;43531;52.152;6.366;2023-04-15T01:44:44;6.05;;;5.13;;
57697;SDS011;43531;52.152;6.366;2023-04-15T01:45:15;6.85;;;4.70;;
57697;SDS011;43531;52.152;6.366;2023-04-15T01:45:47;7.25;;;4.47;;
57697;SDS011;43531;52.152;6.366;2023-04-15T01:46:19;6.97;;;5.55;;
57697;SDS011;43531;52.152;6.366;2023-04-15T01:46:51;6.57;;;4.63;;
57697;SDS011;43531;52.152;6.366;2023-04-15T01:47:23;6.65;;;4.88;;
57697;SDS011;43531;52.152;6.366;2023-04-15T01:47:55;7.55;;;4.95;;
57697;SDS011;43531;52.152;6.366;2023-04-15T01:48:26;7.50;;;5.00;;
57697;SDS011;43531;52.152;6.366;2023-04-15T01:49:00;8.65;;;5.22;;
57697;SDS011;43531;52.152;6.366;2023-04-15T01:49:32;7.30;;;5.57;;
57697;SDS011;43531;52.152;6.366;2023-04-15T01:50:04;5.70;;;5.13;;
57697;SDS011;43531;52.152;6.366;2023-04-15T01:50:37;9.23;;;5.43;;
57697;SDS011;43531;52.152;6.366;2023-04-15T01:51:08;7.90;;;5.85;;
57697;SDS011;43531;52.152;6.366;2023-04-15T01:51:40;11.63;;;5.68;;
57697;SDS011;43531;52.152;6.366;2023-04-15T01:52:11;7.85;;;4.97;;
57697;SDS011;43531;52.152;6.366;2023-04-15T01:52:43;7.15;;;5.38;;
57697;SDS011;43531;52.152;6.366;2023-04-15T01:53:15;6.85;;;6.07;;
57697;SDS011;43531;52.152;6.366;2023-04-15T01:53:47;7.05;;;5.47;;
57697;SDS011;43531;52.152;6.366;2023-04-15T01:54:18;8.35;;;6.32;;
57697;SDS011;43531;52.152;6.366;2023-04-15T01:54:50;5.90;;;5.30;;
57697;SDS011;43531;52.152;6.366;2023-04-15T01:55:22;8.82;;;6.70;;
57697;SDS011;43531;52.152;6.366;2023-04-15T01:55:53;6.30;;;5.70;;
57697;SDS011;43531;52.152;6.366;2023-04-15T01:56:25;6.20;;;5.57;;
57697;SDS011;43531;52.152;6.366;2023-04-15T01:56:57;7.80;;;5.50;;
57697;SDS011;43531;52.152;6.366;2023-04-15T01:57:29;6.70;;;6.00;;
57697;SDS011;43531;52.152;6.366;2023-04-15T01:58:01;10.35;;;5.85;;
57697;SDS011;43531;52.152;6.366;2023-04-15T01:58:32;8.85;;;6.78;;
57697;SDS011;43531;52.152;6.366;2023-04-15T01:59:04;8.07;;;6.63;;
57697;SDS011;43531;52.152;6.366;2023-04-15T01:59:36;7.50;;;6.60;;
57697;SDS011;43531;52.152;6.366;2023-04-15T02:00:08;9.10;;;6.60;;
57697;SDS011;43531;52.152;6.366;2023-04-15T02:00:46;8.10;;;6.00;;
57697;SDS011;43531;52.152;6.366;2023-04-15T02:01:18;10.95;;;6.43;;
57697;SDS011;43531;52.152;6.366;2023-04-15T02:01:50;10.63;;;6.28;;
57697;SDS011;43531;52.152;6.366;2023-04-15T02:02:23;6.70;;;5.70;;
57697;SDS011;43531;52.152;6.366;2023-04-15T02:02:55;10.32;;;5.70;;
57697;SDS011;43531;52.152;6.366;2023-04-15T02:03:29;10.48;;;6.53;;
57697;SDS011;43531;52.152;6.366;2023-04-15T02:04:00;10.27;;;5.80;;
57697;SDS011;43531;52.152;6.366;2023-04-15T02:04:34;7.32;;;5.63;;
57697;SDS011;43531;52.152;6.366;2023-04-15T02:05:06;6.00;;;5.35;;
57697;SDS011;43531;52.152;6.366;2023-04-15T02:05:38;9.23;;;5.63;;
57697;SDS011;43531;52.152;6.366;2023-04-15T02:06:09;9.55;;;6.00;;
57697;SDS011;43531;52.152;6.366;2023-04-15T02:06:41;14.38;;;5.55;;
57697;SDS011;43531;52.152;6.366;2023-04-15T02:07:14;8.02;;;6.28;;
57697;SDS011;43531;52.152;6.366;2023-04-15T02:07:45;10.32;;;6.45;;
57697;SDS011;43531;52.152;6.366;2023-04-15T02:08:17;8.63;;;6.72;;
57697;SDS011;43531;52.152;6.366;2023-04-15T02:08:48;7.15;;;6.47;;
57697;SDS011;43531;52.152;6.366;2023-04-15T02:09:20;7.85;;;6.72;;
57697;SDS011;43531;52.152;6.366;2023-04-15T02:09:52;9.68;;;5.72;;
57697;SDS011;43531;52.152;6.366;2023-04-15T02:10:23;8.73;;;5.53;;
57697;SDS011;43531;52.152;6.366;2023-04-15T02:10:55;6.78;;;6.10;;
57697;SDS011;43531;52.152;6.366;2023-04-15T02:11:28;6.72;;;6.07;;
57697;SDS011;43531;52.152;6.366;2023-04-15T02:12:00;7.20;;;6.43;;
57697;SDS011;43531;52.152;6.366;2023-04-15T02:12:32;6.38;;;5.55;;
57697;SDS011;43531;52.152;6.366;2023-04-15T02:13:04;6.15;;;5.50;;
57697;SDS011;43531;52.152;6.366;2023-04-15T02:13:35;6.40;;;5.53;;
57697;SDS011;43531;52.152;6.366;2023-04-15T02:14:07;8.65;;;5.70;;
57697;SDS011;43531;52.152;6.366;2023-04-15T02:14:39;7.88;;;6.45;;
57697;SDS011;43531;52.152;6.366;2023-04-15T02:15:11;11.43;;;6.95;;
57697;SDS011;43531;52.152;6.366;2023-04-15T02:15:49;7.35;;;6.63;;
57697;SDS011;43531;52.152;6.366;2023-04-15T02:16:23;7.13;;;6.43;;
57697;SDS011;43531;52.152;6.366;2023-04-15T02:16:54;10.10;;;6.05;;
57697;SDS011;43531;52.152;6.366;2023-04-15T02:17:26;8.65;;;5.97;;
57697;SDS011;43531;52.152;6.366;2023-04-15T02:17:58;9.50;;;6.13;;
57697;SDS011;43531;52.152;6.366;2023-04-15T02:18:31;6.88;;;6.03;;
57697;SDS011;43531;52.152;6.366;2023-04-15T02:19:02;10.10;;;6.68;;
57697;SDS011;43531;52.152;6.366;2023-04-15T02:19:34;10.00;;;7.15;;
57697;SDS011;43531;52.152;6.366;2023-04-15T02:20:07;9.50;;;5.70;;
57697;SDS011;43531;52.152;6.366;2023-04-15T02:20:41;10.15;;;7.07;;
57697;SDS011;43531;52.152;6.366;2023-04-15T02:21:13;11.65;;;6.55;;
57697;SDS011;43531;52.152;6.366;2023-04-15T02:21:45;9.30;;;6.28;;
57697;SDS011;43531;52.152;6.366;2023-04-15T02:22:21;9.20;;;7.90;;
57697;SDS011;43531;52.152;6.366;2023-04-15T02:22:52;10.98;;;7.30;;
57697;SDS011;43531;52.152;6.366;2023-04-15T02:23:24;8.35;;;6.40;;
57697;SDS011;43531;52.152;6.366;2023-04-15T02:23:56;9.10;;;7.13;;
57697;SDS011;43531;52.152;6.366;2023-04-15T02:24:28;8.75;;;6.15;;
57697;SDS011;43531;52.152;6.366;2023-04-15T02:25:00;8.95;;;6.15;;
57697;SDS011;43531;52.152;6.366;2023-04-15T02:25:32;8.70;;;6.10;;
57697;SDS011;43531;52.152;6.366;2023-04-15T02:26:03;8.95;;;6.20;;
57697;SDS011;43531;52.152;6.366;2023-04-15T02:26:35;9.70;;;6.35;;
57697;SDS011;43531;52.152;6.366;2023-04-15T02:27:07;9.93;;;7.53;;
57697;SDS011;43531;52.152;6.366;2023-04-15T02:27:38;7.32;;;6.63;;
57697;SDS011;43531;52.152;6.366;2023-04-15T02:28:10;8.02;;;6.47;;
57697;SDS011;43531;52.152;6.366;2023-04-15T02:28:41;11.85;;;7.05;;
57697;SDS011;43531;52.152;6.366;2023-04-15T02:29:13;7.15;;;5.60;;
57697;SDS011;43531;52.152;6.366;2023-04-15T02:29:44;12.70;;;6.30;;
57697;SDS011;43531;52.152;6.366;2023-04-15T02:30:16;7.35;;;6.65;;
57697;SDS011;43531;52.152;6.366;2023-04-15T02:30:48;10.93;;;7.75;;
57697;SDS011;43531;52.152;6.366;2023-04-15T02:31:24;12.48;;;6.70;;
57697;SDS011;43531;52.152;6.366;2023-04-15T02:31:56;11.90;;;7.70;;
57697;SDS011;43531;52.152;6.366;2023-04-15T02:32:28;10.30;;;6.75;;
57697;SDS011;43531;52.152;6.366;2023-04-15T02:32:59;8.43;;;6.40;;
57697;SDS011;43531;52.152;6.366;2023-04-15T02:33:31;7.75;;;6.95;;
57697;SDS011;43531;52.152;6.366;2023-04-15T02:34:04;7.97;;;6.60;;
57697;SDS011;43531;52.152;6.366;2023-04-15T02:34:36;9.23;;;6.90;;
57697;SDS011;43531;52.152;6.366;2023-04-15T02:35:12;8.75;;;6.97;;
57697;SDS011;43531;52.152;6.366;2023-04-15T02:35:43;10.23;;;7.18;;
57697;SDS011;43531;52.152;6.366;2023-04-15T02:36:16;7.53;;;5.75;;
57697;SDS011;43531;52.152;6.366;2023-04-15T02:36:48;9.80;;;6.18;;
57697;SDS011;43531;52.152;6.366;2023-04-15T02:37:20;10.68;;;7.32;;
57697;SDS011;43531;52.152;6.366;2023-04-15T02:37:51;8.77;;;7.60;;
57697;SDS011;43531;52.152;6.366;2023-04-15T02:38:23;13.25;;;9.00;;
57697;SDS011;43531;52.152;6.366;2023-04-15T02:38:55;9.75;;;7.18;;
57697;SDS011;43531;52.152;6.366;2023-04-15T02:39:28;8.35;;;6.57;;
57697;SDS011;43531;52.152;6.366;2023-04-15T02:39:59;10.82;;;6.95;;
57697;SDS011;43531;52.152;6.366;2023-04-15T02:40:31;10.73;;;7.38;;
57697;SDS011;43531;52.152;6.366;2023-04-15T02:41:03;7.88;;;7.10;;
57697;SDS011;43531;52.152;6.366;2023-04-15T02:41:35;8.95;;;6.93;;
57697;SDS011;43531;52.152;6.366;2023-04-15T02:42:07;8.73;;;6.38;;
57697;SDS011;43531;52.152;6.366;2023-04-15T02:42:40;8.00;;;7.10;;
57697;SDS011;43531;52.152;6.366;2023-04-15T02:43:15;9.88;;;6.75;;
57697;SDS011;43531;52.152;6.366;2023-04-15T02:43:49;9.27;;;6.78;;
57697;SDS011;43531;52.152;6.366;2023-04-15T02:44:21;8.32;;;7.43;;
57697;SDS011;43531;52.152;6.366;2023-04-15T02:44:58;10.57;;;6.60;;
57697;SDS011;43531;52.152;6.366;2023-04-15T02:45:34;9.77;;;7.30;;
57697;SDS011;43531;52.152;6.366;2023-04-15T02:46:08;12.48;;;7.63;;
57697;SDS011;43531;52.152;6.366;2023-04-15T02:46:43;9.30;;;7.28;;
57697;SDS011;43531;52.152;6.366;2023-04-15T02:47:14;7.97;;;7.18;;
57697;SDS011;43531;52.152;6.366;2023-04-15T02:47:46;8.20;;;7.05;;
57697;SDS011;43531;52.152;6.366;2023-04-15T02:48:18;7.38;;;6.68;;
57697;SDS011;43531;52.152;6.366;2023-04-15T02:48:50;7.72;;;6.38;;
57697;SDS011;43531;52.152;6.366;2023-04-15T02:49:24;7.50;;;6.55;;
57697;SDS011;43531;52.152;6.366;2023-04-15T02:49:56;10.35;;;6.90;;
57697;SDS011;43531;52.152;6.366;2023-04-15T02:50:32;10.43;;;7.25;;
57697;SDS011;43531;52.152;6.366;2023-04-15T02:51:16;11.20;;;7.95;;
57697;SDS011;43531;52.152;6.366;2023-04-15T02:51:53;8.43;;;7.07;;
57697;SDS011;43531;52.152;6.366;2023-04-15T02:52:25;14.30;;;7.40;;
57697;SDS011;43531;52.152;6.366;2023-04-15T02:52:57;7.93;;;7.13;;
57697;SDS011;43531;52.152;6.366;2023-04-15T02:53:31;8.77;;;7.93;;
57697;SDS011;43531;52.152;6.366;2023-04-15T02:54:02;7.95;;;7.15;;
57697;SDS011;43531;52.152;6.366;2023-04-15T02:54:34;12.75;;;8.23;;
57697;SDS011;43531;52.152;6.366;2023-04-15T02:55:06;9.77;;;7.60;;
57697;SDS011;43531;52.152;6.366;2023-04-15T02:55:39;10.20;;;7.57;;
57697;SDS011;43531;52.152;6.366;2023-04-15T02:56:11;11.00;;;8.15;;
57697;SDS011;43531;52.152;6.366;2023-04-15T02:56:42;9.68;;;7.55;;
57697;SDS011;43531;52.152;6.366;2023-04-15T02:57:14;8.77;;;6.60;;
57697;SDS011;43531;52.152;6.366;2023-04-15T02:57:46;7.60;;;6.82;;
57697;SDS011;43531;52.152;6.366;2023-04-15T02:58:17;8.73;;;7.20;;
57697;SDS011;43531;52.152;6.366;2023-04-15T02:58:49;7.97;;;6.93;;
57697;SDS011;43531;52.152;6.366;2023-04-15T02:59:21;9.30;;;7.03;;
57697;SDS011;43531;52.152;6.366;2023-04-15T02:59:52;8.15;;;7.32;;
57697;SDS011;43531;52.152;6.366;2023-04-15T03:00:26;9.63;;;6.80;;
57697;SDS011;43531;52.152;6.366;2023-04-15T03:00:58;10.40;;;8.85;;
57697;SDS011;43531;52.152;6.366;2023-04-15T03:01:30;8.25;;;7.10;;
57697;SDS011;43531;52.152;6.366;2023-04-15T03:02:01;9.18;;;8.18;;
57697;SDS011;43531;52.152;6.366;2023-04-15T03:02:33;10.27;;;7.90;;
57697;SDS011;43531;52.152;6.366;2023-04-15T03:03:07;9.35;;;8.05;;
57697;SDS011;43531;52.152;6.366;2023-04-15T03:03:39;8.70;;;7.95;;
57697;SDS011;43531;52.152;6.366;2023-04-15T03:04:11;7.97;;;7.18;;
57697;SDS011;43531;52.152;6.366;2023-04-15T03:04:44;7.38;;;6.68;;
57697;SDS011;43531;52.152;6.366;2023-04-15T03:05:15;10.57;;;7.72;;
57697;SDS011;43531;52.152;6.366;2023-04-15T03:05:52;8.07;;;7.25;;
57697;SDS011;43531;52.152;6.366;2023-04-15T03:06:24;9.20;;;6.72;;
57697;SDS011;43531;52.152;6.366;2023-04-15T03:06:56;8.52;;;6.40;;
57697;SDS011;43531;52.152;6.366;2023-04-15T03:07:29;9.80;;;7.60;;
57697;SDS011;43531;52.152;6.366;2023-04-15T03:08:01;10.80;;;8.30;;
57697;SDS011;43531;52.152;6.366;2023-04-15T03:08:33;9.98;;;8.60;;
57697;SDS011;43531;52.152;6.366;2023-04-15T03:09:04;8.68;;;7.78;;
57697;SDS011;43531;52.152;6.366;2023-04-15T03:09:38;8.60;;;7.20;;
57697;SDS011;43531;52.152;6.366;2023-04-15T03:10:11;9.05;;;7.97;;
57697;SDS011;43531;52.152;6.366;2023-04-15T03:10:43;8.27;;;7.30;;
57697;SDS011;43531;52.152;6.366;2023-04-15T03:11:14;8.50;;;7.50;;
57697;SDS011;43531;52.152;6.366;2023-04-15T03:11:47;7.90;;;7.00;;
57697;SDS011;43531;52.152;6.366;2023-04-15T03:12:19;8.02;;;7.18;;
57697;SDS011;43531;52.152;6.366;2023-04-15T03:12:50;8.68;;;7.70;;
57697;SDS011;43531;52.152;6.366;2023-04-15T03:13:24;8.35;;;7.13;;
57697;SDS011;43531;52.152;6.366;2023-04-15T03:13:57;9.25;;;7.28;;
57697;SDS011;43531;52.152;6.366;2023-04-15T03:14:34;8.77;;;7.65;;